Time;durP1;ratioP1;P1;durP2;ratioP2;P2;SDS_P1;SDS_P2;PMS_P1;PMS_P2;Temp;Humidity;BMP_temperature;BMP_pressure;BME280_temperature;BME280_humidity;BME280_pressure;Samples;Min_cycle;Max_cycle;Signal;HPM_P1;HPM_P2
2022/03/07 00:01:26;;;;;;;9.98;2.05;;;;;;;2.05;72.40;101571.97;5018123;28;20104;-48
2022/03/07 00:03:56;;;;;;;4.68;1.33;;;;;;;2.07;72.37;101568.59;5018345;28;20061;-48
2022/03/07 00:06:23;;;;;;;7.20;1.75;;;;;;;2.11;72.25;101567.97;5019534;28;20545;-44
2022/03/07 00:08:50;;;;;;;6.50;1.55;;;;;;;2.11;72.03;101565.44;5022648;28;20057;-47
2022/03/07 00:11:18;;;;;;;7.10;2.08;;;;;;;2.13;72.69;101563.84;5012527;28;20050;-44
2022/03/07 00:13:44;;;;;;;7.68;0.90;;;;;;;2.14;72.06;101568.16;5007105;28;20467;-45
2022/03/07 00:16:12;;;;;;;3.65;1.77;;;;;;;2.14;73.01;101560.50;5011652;28;20050;-47
2022/03/07 00:18:39;;;;;;;7.72;1.85;;;;;;;2.15;72.77;101564.81;5019111;28;20058;-46
2022/03/07 00:21:07;;;;;;;9.93;2.53;;;;;;;2.15;72.68;101563.13;5020837;28;20107;-46
2022/03/07 00:23:34;;;;;;;3.95;2.15;;;;;;;2.15;73.18;101564.81;5004641;28;20045;-52
2022/03/07 00:26:03;;;;;;;9.43;1.95;;;;;;;2.14;72.79;101551.16;5006799;28;20046;-46
2022/03/07 00:28:30;;;;;;;4.90;1.77;;;;;;;2.15;72.92;101558.03;5007485;28;20050;-44
2022/03/07 00:30:57;;;;;;;6.18;2.20;;;;;;;2.17;72.79;101565.78;5007752;28;20539;-47
2022/03/07 00:33:23;;;;;;;5.55;2.17;;;;;;;2.17;72.31;101551.31;5006569;28;20058;-48
2022/03/07 00:35:50;;;;;;;3.58;1.90;;;;;;;2.20;71.99;101555.75;5010546;28;20045;-46
2022/03/07 00:38:18;;;;;;;4.53;2.35;;;;;;;2.19;72.44;101551.41;5000350;28;20045;-46
2022/03/07 00:40:44;;;;;;;9.80;2.25;;;;;;;2.22;72.87;101554.13;5004465;28;20081;-43
2022/03/07 00:43:11;;;;;;;6.88;1.58;;;;;;;2.24;72.16;101549.09;5003646;28;20119;-48
2022/03/07 00:45:37;;;;;;;9.52;2.47;;;;;;;2.26;72.49;101552.63;4996833;28;20473;-46
2022/03/07 00:48:05;;;;;;;6.38;1.50;;;;;;;2.25;72.33;101551.75;4997150;28;20531;-44
2022/03/07 00:50:31;;;;;;;4.65;1.98;;;;;;;2.27;72.76;101547.59;4994620;28;20190;-45
2022/03/07 00:52:58;;;;;;;9.57;1.80;;;;;;;2.28;73.44;101544.25;5000487;28;20054;-49
2022/03/07 00:55:25;;;;;;;6.00;2.47;;;;;;;2.29;72.71;101546.00;5008480;28;20050;-52
2022/03/07 00:57:52;;;;;;;6.20;2.20;;;;;;;2.30;72.32;101547.75;5005412;28;20078;-43
2022/03/07 01:00:20;;;;;;;3.78;0.85;;;;;;;2.31;72.33;101529.09;5002641;28;20382;-48
2022/03/07 01:02:46;;;;;;;5.88;2.53;;;;;;;2.34;72.87;101533.50;5004981;28;20050;-45
2022/03/07 01:05:14;;;;;;;8.50;2.25;;;;;;;2.35;73.04;101529.22;5003249;28;20042;-47
2022/03/07 01:07:41;;;;;;;3.85;1.50;;;;;;;2.35;73.05;101529.22;5002400;28;20046;-45
2022/03/07 01:10:08;;;;;;;7.60;2.08;;;;;;;2.37;72.86;101522.53;5000688;28;20057;-45
2022/03/07 01:12:34;;;;;;;3.10;1.48;;;;;;;2.36;72.98;101520.78;5001920;28;20065;-48
2022/03/07 01:15:01;;;;;;;7.20;1.35;;;;;;;2.37;73.11;101519.97;4995374;28;20054;-44
2022/03/07 01:17:29;;;;;;;7.85;2.15;;;;;;;2.33;72.70;101511.25;5021106;28;20046;-47
2022/03/07 01:19:57;;;;;;;5.93;1.77;;;;;;;2.31;74.22;101512.84;5000507;28;20057;-46
2022/03/07 01:22:26;;;;;;;4.25;2.00;;;;;;;2.29;73.85;101515.31;5000657;28;20148;-45
2022/03/07 01:24:54;;;;;;;9.07;2.20;;;;;;;2.28;73.24;101505.00;5000125;28;20169;-47
2022/03/07 01:27:22;;;;;;;5.45;2.13;;;;;;;2.26;74.29;101502.38;5001642;28;20058;-43
2022/03/07 01:29:50;;;;;;;6.18;2.83;;;;;;;2.27;73.34;101496.44;5001001;28;20042;-45
2022/03/07 01:32:21;;;;;;;3.08;2.00;;;;;;;2.28;73.64;101493.13;4999423;28;20070;-47
2022/03/07 01:34:49;;;;;;;2.10;1.77;;;;;;;2.27;74.07;101495.59;5004937;28;20054;-46
2022/03/07 01:37:16;;;;;;;4.50;1.98;;;;;;;2.26;73.13;101489.59;4999179;28;20045;-44
2022/03/07 01:39:42;;;;;;;5.28;1.98;;;;;;;2.29;73.52;101494.88;5005597;28;20108;-47
2022/03/07 01:42:09;;;;;;;7.13;2.58;;;;;;;2.29;73.16;101499.97;4996297;28;20077;-45
2022/03/07 01:44:37;;;;;;;4.25;1.85;;;;;;;2.28;72.98;101490.56;4999413;28;20057;-45
2022/03/07 01:47:05;;;;;;;5.57;2.25;;;;;;;2.27;73.29;101481.09;4997828;28;20462;-47
2022/03/07 01:49:32;;;;;;;2.70;1.65;;;;;;;2.30;74.61;101490.66;5001986;28;20041;-43
2022/03/07 01:51:59;;;;;;;8.65;2.67;;;;;;;2.30;74.55;101476.16;5000154;28;20501;-45
2022/03/07 01:54:27;;;;;;;3.33;1.63;;;;;;;2.34;73.39;101471.22;5003198;28;20058;-46
2022/03/07 01:56:54;;;;;;;4.72;1.80;;;;;;;2.36;74.03;101469.66;5003354;28;20050;-46
2022/03/07 01:59:23;;;;;;;7.97;2.42;;;;;;;2.39;74.87;101469.78;4996382;28;20548;-43
2022/03/07 02:01:50;;;;;;;4.07;1.58;;;;;;;2.40;73.85;101472.44;5001783;28;20116;-48
2022/03/07 02:04:17;;;;;;;3.92;1.85;;;;;;;2.44;74.04;101468.38;4999872;28;20061;-43
2022/03/07 02:06:45;;;;;;;7.28;0.77;;;;;;;2.47;73.69;101462.53;5002229;28;20453;-46
2022/03/07 02:09:13;;;;;;;5.05;2.25;;;;;;;2.50;73.88;101455.91;4999240;28;20049;-46
2022/03/07 02:11:40;;;;;;;5.45;1.33;;;;;;;2.52;73.34;101461.97;4994509;28;20091;-46
2022/03/07 02:14:23;;;;;;;7.07;2.17;;;;;;;2.55;74.32;101457.03;4999630;28;20487;-43
2022/03/07 02:16:51;;;;;;;9.93;1.63;;;;;;;2.57;73.96;101452.88;4997470;28;20057;-45
2022/03/07 02:19:17;;;;;;;3.53;1.52;;;;;;;2.61;72.87;101450.47;4999907;28;20054;-44
2022/03/07 02:21:47;;;;;;;6.65;2.13;;;;;;;2.61;73.93;101455.59;4998731;28;20042;-48
2022/03/07 02:24:16;;;;;;;2.85;1.48;;;;;;;2.63;73.04;101456.56;5001914;28;20044;-46
2022/03/07 02:26:54;;;;;;;5.03;1.98;;;;;;;2.61;73.54;101453.94;4997144;28;20057;-47
2022/03/07 02:29:20;;;;;;;3.05;1.70;;;;;;;2.65;73.09;101457.50;4998726;28;20104;-47
2022/03/07 02:31:47;;;;;;;2.47;1.63;;;;;;;2.67;73.35;101453.38;4998538;28;20046;-46
2022/03/07 02:34:13;;;;;;;7.97;2.05;;;;;;;2.68;72.81;101437.22;4995589;28;20054;-44
2022/03/07 02:36:40;;;;;;;4.35;1.77;;;;;;;2.69;73.24;101439.84;5002240;28;20050;-45
2022/03/07 02:39:07;;;;;;;6.43;1.85;;;;;;;2.71;73.35;101442.50;4998494;28;20061;-46
2022/03/07 02:41:33;;;;;;;7.45;1.45;;;;;;;2.73;73.42;101429.78;4999968;28;20065;-48
2022/03/07 02:44:00;;;;;;;7.65;1.85;;;;;;;2.73;72.86;101435.75;4999635;28;20052;-45
2022/03/07 02:46:26;;;;;;;9.02;2.08;;;;;;;2.73;73.42;101434.91;5001849;28;20046;-47
2022/03/07 02:48:53;;;;;;;5.63;1.60;;;;;;;2.74;72.86;101437.53;4999006;28;20104;-43
2022/03/07 02:51:20;;;;;;;6.88;1.00;;;;;;;2.74;72.78;101432.41;4997968;28;20863;-42
2022/03/07 02:53:47;;;;;;;3.10;1.92;;;;;;;2.74;72.38;101426.41;5001067;28;20054;-44
2022/03/07 02:56:13;;;;;;;6.35;1.80;;;;;;;2.74;73.15;101431.53;5001160;28;20050;-48
2022/03/07 02:58:40;;;;;;;4.65;1.23;;;;;;;2.75;72.48;101425.59;5004457;28;20042;-42
2022/03/07 03:01:07;;;;;;;3.15;0.50;;;;;;;2.75;72.86;101416.25;5001113;28;20449;-46
2022/03/07 03:03:36;;;;;;;7.28;1.67;;;;;;;2.76;72.31;101419.69;4999024;28;20057;-46
2022/03/07 03:06:03;;;;;;;5.47;1.52;;;;;;;2.76;72.82;101420.56;4998866;28;20539;-45
2022/03/07 03:08:30;;;;;;;4.05;1.45;;;;;;;2.77;73.19;101418.91;5001783;28;20042;-46
2022/03/07 03:10:57;;;;;;;3.20;1.92;;;;;;;2.77;73.12;101422.31;4997493;28;20116;-45
2022/03/07 03:13:24;;;;;;;5.07;1.42;;;;;;;2.76;73.43;101412.91;5003199;28;20049;-47
2022/03/07 03:15:52;;;;;;;3.17;1.30;;;;;;;2.77;73.31;101406.09;4994667;28;20060;-45
2022/03/07 03:18:19;;;;;;;3.67;1.75;;;;;;;2.78;72.69;101403.63;5002546;28;20433;-48
2022/03/07 03:20:48;;;;;;;5.20;1.77;;;;;;;2.78;72.82;101398.50;4997150;28;20045;-49
2022/03/07 03:23:16;;;;;;;6.10;1.92;;;;;;;2.78;73.15;101393.41;5000412;28;20044;-46
2022/03/07 03:25:43;;;;;;;3.88;1.73;;;;;;;2.81;73.46;101393.53;4998383;28;20045;-48
2022/03/07 03:28:12;;;;;;;3.15;1.85;;;;;;;2.81;72.87;101390.97;4996356;28;20116;-45
2022/03/07 03:30:39;;;;;;;9.07;2.42;;;;;;;2.82;72.28;101386.75;5003353;28;20053;-49
2022/03/07 03:33:05;;;;;;;4.53;1.52;;;;;;;2.80;72.95;101389.22;4996898;28;20058;-44
2022/03/07 03:35:36;;;;;;;2.80;1.77;;;;;;;2.82;73.24;101386.75;5001875;28;20050;-47
2022/03/07 03:38:05;;;;;;;5.97;2.10;;;;;;;2.81;72.35;101383.28;4991505;28;20046;-45
2022/03/07 03:40:32;;;;;;;3.63;1.65;;;;;;;2.81;73.03;101378.16;4999917;28;20080;-50
2022/03/07 03:42:58;;;;;;;5.43;1.40;;;;;;;2.80;72.93;101373.88;4999096;28;20091;-44
2022/03/07 03:45:25;;;;;;;3.25;1.70;;;;;;;2.82;72.56;101379.06;4997501;28;20046;-46
2022/03/07 03:47:52;;;;;;;3.55;1.77;;;;;;;2.81;72.99;101373.06;5002207;28;20050;-50
2022/03/07 03:50:18;;;;;;;4.95;2.10;;;;;;;2.78;73.02;101372.94;5000443;28;20053;-46
2022/03/07 03:52:45;;;;;;;6.72;1.92;;;;;;;2.78;73.01;101372.03;5000373;28;20053;-47
2022/03/07 03:55:13;;;;;;;3.92;2.05;;;;;;;2.75;71.96;101367.66;4998166;28;20120;-46
2022/03/07 03:57:40;;;;;;;8.25;2.03;;;;;;;2.74;72.34;101362.44;5007021;28;20058;-50
2022/03/07 04:00:10;;;;;;;6.68;0.77;;;;;;;2.73;72.12;101358.13;5000405;28;20382;-46
2022/03/07 04:02:36;;;;;;;4.18;1.73;;;;;;;2.70;72.54;101359.72;5001057;28;20058;-45
2022/03/07 04:05:05;;;;;;;3.88;0.52;;;;;;;2.70;73.11;101363.97;5002339;28;20448;-46
2022/03/07 04:07:32;;;;;;;3.60;1.58;;;;;;;2.68;71.76;101355.34;4999299;28;20911;-45
2022/03/07 04:09:58;;;;;;;4.95;1.85;;;;;;;2.65;72.34;101358.63;5000281;28;20054;-45
2022/03/07 04:12:25;;;;;;;8.25;2.05;;;;;;;2.63;72.15;101356.78;5001938;28;20482;-49
2022/03/07 04:14:51;;;;;;;4.82;2.30;;;;;;;2.61;72.96;101355.81;5001752;28;20050;-44
2022/03/07 04:17:18;;;;;;;5.10;1.80;;;;;;;2.59;72.38;101358.31;4996645;28;20053;-45
2022/03/07 04:19:45;;;;;;;8.25;1.85;;;;;;;2.59;73.08;101357.41;5002348;28;20057;-47
2022/03/07 04:22:11;;;;;;;1.30;0.50;;;;;;;2.57;72.49;101353.09;5005167;28;20482;-46
2022/03/07 04:24:39;;;;;;;5.18;1.25;;;;;;;2.56;72.82;101351.34;5003142;28;20437;-47
2022/03/07 04:27:05;;;;;;;8.70;1.95;;;;;;;2.56;72.61;101351.34;5003566;28;20064;-45
2022/03/07 04:29:33;;;;;;;4.28;1.70;;;;;;;2.55;73.05;101348.72;5005421;28;20073;-44
2022/03/07 04:32:00;;;;;;;4.22;1.35;;;;;;;2.55;72.21;101344.50;5001408;28;20057;-49
2022/03/07 04:34:27;;;;;;;6.88;2.00;;;;;;;2.54;72.64;101347.81;5003717;28;20046;-47
2022/03/07 04:36:54;;;;;;;9.07;1.55;;;;;;;2.54;72.94;101352.94;5000686;28;20046;-45
2022/03/07 04:39:20;;;;;;;5.10;1.83;;;;;;;2.54;72.04;101352.94;5005090;28;20058;-50
2022/03/07 04:41:47;;;;;;;5.15;1.95;;;;;;;2.50;71.74;101348.47;5002388;28;20046;-50
2022/03/07 04:44:13;;;;;;;2.55;2.05;;;;;;;2.51;72.89;101345.13;4999619;28;20050;-48
2022/03/07 04:46:40;;;;;;;10.82;3.38;;;;;;;2.52;73.12;101348.56;5000910;28;20050;-44
2022/03/07 04:49:10;;;;;;;7.65;1.88;;;;;;;2.52;72.50;101354.56;5003483;28;20132;-46
2022/03/07 04:51:36;;;;;;;3.10;1.23;;;;;;;2.52;72.86;101357.13;5003712;28;20068;-45
2022/03/07 04:54:04;;;;;;;3.13;1.83;;;;;;;2.53;72.13;101353.75;5001923;28;20054;-47
2022/03/07 04:56:30;;;;;;;3.53;1.52;;;;;;;2.54;72.04;101355.50;5004103;28;20097;-46
2022/03/07 04:58:57;;;;;;;3.00;1.55;;;;;;;2.55;72.03;101354.72;5001001;28;20069;-45
2022/03/07 05:01:41;;;;;;;5.22;1.65;;;;;;;2.55;72.61;101359.84;5002890;28;20140;-46
2022/03/07 05:04:08;;;;;;;10.70;1.80;;;;;;;2.57;72.22;101347.13;4997835;28;20060;-45
2022/03/07 05:06:34;;;;;;;3.13;1.73;;;;;;;2.60;72.84;101351.53;5003722;28;20063;-47
2022/03/07 05:09:02;;;;;;;5.53;1.52;;;;;;;2.60;72.61;101348.97;4998422;28;20049;-48
2022/03/07 05:11:28;;;;;;;5.60;2.13;;;;;;;2.62;72.85;101349.91;5000349;28;20054;-45
2022/03/07 05:13:55;;;;;;;7.78;1.48;;;;;;;2.62;72.12;101349.91;5005406;28;20050;-50
2022/03/07 05:16:22;;;;;;;7.70;1.85;;;;;;;2.64;73.00;101351.72;4996681;28;20038;-49
2022/03/07 05:18:49;;;;;;;4.03;1.52;;;;;;;2.64;71.57;101348.31;5001749;28;20050;-45
2022/03/07 05:21:16;;;;;;;4.53;0.60;;;;;;;2.64;72.29;101344.06;4998836;28;20449;-46
2022/03/07 05:23:42;;;;;;;7.22;1.77;;;;;;;2.64;72.05;101349.16;5002261;28;20046;-44
2022/03/07 05:26:09;;;;;;;2.38;1.45;;;;;;;2.61;72.14;101343.91;5000845;28;20117;-43
2022/03/07 05:28:53;;;;;;;1.98;1.63;;;;;;;2.61;72.78;101348.16;5000129;28;20060;-48
2022/03/07 05:31:19;;;;;;;5.60;1.65;;;;;;;2.56;72.57;101336.00;4998178;28;20065;-44
2022/03/07 05:33:46;;;;;;;5.18;1.65;;;;;;;2.54;72.09;101347.81;4994784;28;20576;-47
2022/03/07 05:36:12;;;;;;;4.13;2.00;;;;;;;2.51;72.45;101347.69;5002231;28;20051;-45
2022/03/07 05:38:39;;;;;;;3.47;1.42;;;;;;;2.46;71.93;101340.59;5001042;28;20049;-46
2022/03/07 05:41:06;;;;;;;2.65;1.70;;;;;;;2.40;72.18;101342.00;4999295;28;20124;-43
2022/03/07 05:43:32;;;;;;;4.50;1.63;;;;;;;2.36;72.66;101339.22;5000612;28;20484;-43
2022/03/07 05:45:59;;;;;;;4.25;1.17;;;;;;;2.30;72.75;101343.19;5002888;28;20042;-46
2022/03/07 05:48:26;;;;;;;3.53;1.50;;;;;;;2.23;72.75;101341.13;5000770;28;20058;-48
2022/03/07 05:50:53;;;;;;;1.73;1.63;;;;;;;2.18;72.36;101340.91;4997424;28;20061;-47
2022/03/07 05:53:21;;;;;;;3.97;1.65;;;;;;;2.12;72.89;101337.13;5002773;28;20086;-48
2022/03/07 05:55:49;;;;;;;2.67;1.52;;;;;;;2.05;72.93;101339.38;4996486;28;20057;-47
2022/03/07 05:58:16;;;;;;;4.10;1.15;;;;;;;1.99;72.39;101343.28;4999185;28;20109;-46
2022/03/07 06:00:43;;;;;;;4.22;1.30;;;;;;;1.93;72.05;101346.41;4995307;28;20148;-45
2022/03/07 06:03:11;;;;;;;4.18;1.45;;;;;;;1.87;73.21;101340.94;5000510;28;20046;-46
2022/03/07 06:05:38;;;;;;;3.58;2.05;;;;;;;1.79;73.13;101343.97;4998437;28;20659;-44
2022/03/07 06:08:05;;;;;;;1.85;1.52;;;;;;;1.73;73.67;101346.19;5002158;28;20054;-46
2022/03/07 06:10:32;;;;;;;3.45;1.15;;;;;;;1.69;72.79;101346.78;5000537;28;20049;-46
2022/03/07 06:12:59;;;;;;;4.32;1.77;;;;;;;1.65;73.12;101342.31;4999757;28;20058;-47
2022/03/07 06:15:26;;;;;;;8.82;2.33;;;;;;;1.60;73.28;101346.31;5001498;28;20101;-49
2022/03/07 06:17:55;;;;;;;5.57;1.65;;;;;;;1.55;72.59;101333.28;5000002;28;20050;-46
2022/03/07 06:20:24;;;;;;;3.38;1.42;;;;;;;1.51;73.75;101339.91;5000065;28;20045;-45
2022/03/07 06:22:51;;;;;;;4.95;2.58;;;;;;;1.51;73.62;101339.91;4999630;28;20060;-44
2022/03/07 06:25:18;;;;;;;1.40;0.50;;;;;;;1.48;73.66;101339.72;5003316;28;20645;-50
2022/03/07 06:27:44;;;;;;;2.63;1.58;;;;;;;1.45;72.61;101331.91;4998956;28;20058;-49
2022/03/07 06:30:12;;;;;;;3.30;1.52;;;;;;;1.41;73.64;101330.84;4996930;28;20054;-45
2022/03/07 06:32:39;;;;;;;3.08;1.63;;;;;;;1.37;72.83;101328.03;4998827;28;20104;-48
2022/03/07 06:35:13;;;;;;;5.05;1.65;;;;;;;1.32;72.86;101329.47;5000852;28;20100;-47
2022/03/07 06:37:47;;;;;;;4.07;1.67;;;;;;;1.28;73.67;101329.28;5003397;28;20045;-52
2022/03/07 06:40:14;;;;;;;5.53;1.42;;;;;;;1.25;73.68;101324.00;5019322;28;20485;-53
2022/03/07 06:42:41;;;;;;;3.42;1.77;;;;;;;1.22;73.70;101334.03;5000287;28;20525;-48
2022/03/07 06:45:09;;;;;;;2.00;1.40;;;;;;;1.18;73.34;101327.00;4993630;28;20120;-47
2022/03/07 06:47:35;;;;;;;6.10;1.55;;;;;;;1.15;73.18;101324.31;5000156;28;20104;-47
2022/03/07 06:50:02;;;;;;;3.00;2.25;;;;;;;1.12;73.53;101317.31;4998996;28;20050;-47
2022/03/07 06:52:29;;;;;;;5.85;2.08;;;;;;;1.10;73.45;101318.94;5001955;28;20049;-47
2022/03/07 06:54:56;;;;;;;6.85;1.40;;;;;;;1.08;73.74;101314.53;4998107;28;20057;-49
2022/03/07 06:57:22;;;;;;;3.72;1.67;;;;;;;1.07;73.96;101312.75;5002046;28;20061;-45
2022/03/07 06:59:49;;;;;;;2.17;0.60;;;;;;;1.09;73.18;101306.09;4997554;28;20448;-49
2022/03/07 07:02:16;;;;;;;4.32;2.60;;;;;;;1.10;73.88;101310.38;4998717;28;20100;-46
2022/03/07 07:04:44;;;;;;;3.47;1.27;;;;;;;1.10;73.86;101310.38;4998096;28;20138;-50
2022/03/07 07:07:11;;;;;;;8.63;1.80;;;;;;;1.12;74.50;101316.47;4995708;28;20054;-48
2022/03/07 07:09:37;;;;;;;5.75;1.88;;;;;;;1.11;74.53;101312.13;5000403;28;20120;-47
2022/03/07 07:12:05;;;;;;;8.68;1.70;;;;;;;1.11;74.10;101304.47;4999543;28;20097;-44
2022/03/07 07:14:31;;;;;;;2.63;1.85;;;;;;;1.14;74.32;101309.75;4992877;28;20061;-45
2022/03/07 07:16:58;;;;;;;4.72;2.15;;;;;;;1.13;74.30;101308.00;5003663;28;20119;-50
2022/03/07 07:19:25;;;;;;;7.70;2.80;;;;;;;1.15;73.79;101306.44;4999242;28;20050;-43
2022/03/07 07:21:51;;;;;;;5.45;2.00;;;;;;;1.19;74.46;101308.38;5000847;28;20095;-46
2022/03/07 07:24:18;;;;;;;3.75;1.13;;;;;;;1.25;73.72;101307.84;4998078;28;20050;-46
2022/03/07 07:26:44;;;;;;;6.10;1.75;;;;;;;1.29;74.65;101299.53;4993679;28;20046;-45
2022/03/07 07:29:11;;;;;;;4.97;1.83;;;;;;;1.37;74.48;101299.94;4994463;28;20081;-46
2022/03/07 07:31:38;;;;;;;10.02;1.95;;;;;;;1.42;74.38;101301.09;4995929;28;20518;-48
2022/03/07 07:34:04;;;;;;;6.32;1.15;;;;;;;1.49;74.08;101303.19;5001967;28;20710;-48
2022/03/07 07:36:31;;;;;;;6.85;2.13;;;;;;;1.54;73.50;101301.78;5001001;28;20050;-45
2022/03/07 07:38:57;;;;;;;4.65;1.90;;;;;;;1.60;74.51;101301.22;5005503;28;20050;-45
2022/03/07 07:41:24;;;;;;;10.05;1.58;;;;;;;1.65;73.49;101304.91;5003163;28;20421;-47
2022/03/07 07:43:50;;;;;;;6.50;2.08;;;;;;;1.70;74.67;101307.72;5001217;28;20555;-48
2022/03/07 07:46:20;;;;;;;2.78;2.03;;;;;;;1.77;73.33;101303.81;5000064;28;20045;-45
2022/03/07 07:48:46;;;;;;;8.32;2.63;;;;;;;1.82;74.50;101314.28;5001497;28;20050;-47
2022/03/07 07:51:13;;;;;;;11.32;1.58;;;;;;;1.89;73.19;101311.25;5000309;28;20058;-49
2022/03/07 07:53:39;;;;;;;4.60;1.98;;;;;;;1.93;74.34;101305.50;5006310;28;20058;-45
2022/03/07 07:56:06;;;;;;;4.38;2.05;;;;;;;1.98;73.41;101306.63;4996274;28;20048;-46
2022/03/07 07:58:33;;;;;;;2.22;1.50;;;;;;;2.07;74.49;101307.91;5000461;28;20046;-49
2022/03/07 08:01:00;;;;;;;4.15;1.80;;;;;;;2.12;74.73;101312.44;4998893;28;20092;-49
2022/03/07 08:03:27;;;;;;;10.18;2.03;;;;;;;2.16;75.03;101310.94;5002673;28;20050;-47
2022/03/07 08:05:55;;;;;;;9.07;3.13;;;;;;;2.22;73.47;101316.38;5000087;28;20091;-48
2022/03/07 08:08:22;;;;;;;5.30;2.05;;;;;;;2.26;74.52;101314.88;4999910;28;20061;-51
2022/03/07 08:10:48;;;;;;;8.63;1.73;;;;;;;2.30;74.36;101320.19;4999777;28;20078;-45
2022/03/07 08:13:16;;;;;;;10.10;2.05;;;;;;;2.34;74.57;101315.25;4998359;28;20057;-48
2022/03/07 08:15:42;;;;;;;9.18;2.05;;;;;;;2.38;73.95;101319.72;5000889;28;20046;-45
2022/03/07 08:18:09;;;;;;;4.10;2.33;;;;;;;2.41;75.12;101314.75;5001202;28;20046;-48
2022/03/07 08:20:36;;;;;;;3.13;1.80;;;;;;;2.41;73.79;101317.31;5000649;28;20481;-49
2022/03/07 08:23:04;;;;;;;7.50;1.92;;;;;;;2.42;75.08;101311.41;5003133;28;20117;-47
2022/03/07 08:25:32;;;;;;;7.57;0.70;;;;;;;2.43;74.54;101303.81;4999722;28;20468;-46
2022/03/07 08:27:59;;;;;;;6.18;2.03;;;;;;;2.50;74.70;101305.00;4999223;28;20528;-48
2022/03/07 08:30:28;;;;;;;6.13;2.10;;;;;;;2.61;75.06;101309.78;5004260;28;20303;-47
2022/03/07 08:32:56;;;;;;;5.15;2.17;;;;;;;2.76;74.01;101307.97;5002833;28;20136;-46
2022/03/07 08:35:23;;;;;;;5.40;2.13;;;;;;;2.89;74.78;101308.59;5002218;28;20050;-48
2022/03/07 08:37:51;;;;;;;6.55;1.95;;;;;;;2.98;75.08;101309.06;4984438;28;20057;-45
2022/03/07 08:40:19;;;;;;;7.35;2.67;;;;;;;3.10;75.08;101303.63;5021316;28;20057;-47
2022/03/07 08:42:46;;;;;;;7.88;2.17;;;;;;;3.22;74.87;101308.47;5000731;28;20073;-46
2022/03/07 08:45:18;;;;;;;11.00;2.08;;;;;;;3.37;74.38;101308.31;4999378;28;20120;-48
2022/03/07 08:47:45;;;;;;;4.90;2.08;;;;;;;3.59;74.74;101305.06;5018937;28;20050;-45
2022/03/07 08:50:12;;;;;;;6.20;1.88;;;;;;;3.76;74.28;101307.53;5001095;28;20053;-44
2022/03/07 08:52:39;;;;;;;8.57;2.25;;;;;;;3.82;73.58;101307.81;5004470;28;20053;-46
2022/03/07 08:55:07;;;;;;;7.22;2.45;;;;;;;3.77;74.25;101299.03;4996923;28;20077;-46
2022/03/07 08:57:34;;;;;;;7.93;2.33;;;;;;;3.72;73.67;101300.53;5000051;28;20108;-47
2022/03/07 09:00:00;;;;;;;14.23;1.95;;;;;;;3.73;73.98;101292.91;5000194;28;20135;-49
2022/03/07 09:02:27;;;;;;;6.47;2.10;;;;;;;3.74;74.35;101298.91;5002063;28;20050;-52
2022/03/07 09:04:54;;;;;;;5.53;2.55;;;;;;;3.77;74.83;101288.78;4994250;28;20104;-48
2022/03/07 09:07:21;;;;;;;4.47;2.00;;;;;;;3.84;74.44;101290.81;5003227;28;20050;-49
2022/03/07 09:09:48;;;;;;;7.07;2.45;;;;;;;3.92;74.69;101297.97;4998240;28;20056;-44
2022/03/07 09:12:14;;;;;;;6.65;2.22;;;;;;;4.03;74.38;101286.53;5003340;28;20053;-48
2022/03/07 09:14:41;;;;;;;5.20;2.45;;;;;;;4.16;74.38;101279.34;4999034;28;20527;-45
2022/03/07 09:17:08;;;;;;;5.93;2.50;;;;;;;4.26;73.80;101281.53;4996526;28;20054;-46
2022/03/07 09:19:34;;;;;;;8.98;1.98;;;;;;;4.35;74.04;101274.22;4995431;28;20041;-47
2022/03/07 09:22:01;;;;;;;7.35;2.53;;;;;;;4.47;74.11;101278.09;4996923;28;20564;-45
2022/03/07 09:24:28;;;;;;;4.97;3.55;;;;;;;4.59;73.76;101280.31;4997718;28;20042;-46
2022/03/07 09:26:54;;;;;;;5.85;2.65;;;;;;;4.68;73.65;101273.00;5001577;28;20482;-46
2022/03/07 09:29:21;;;;;;;4.65;2.28;;;;;;;4.71;72.83;101270.56;5004531;28;20045;-46
2022/03/07 09:31:50;;;;;;;8.48;2.70;;;;;;;4.72;72.49;101269.75;4999018;28;20053;-46
2022/03/07 09:34:17;;;;;;;7.78;3.58;;;;;;;4.70;71.93;101263.66;4998572;28;20049;-48
2022/03/07 09:36:43;;;;;;;8.43;2.33;;;;;;;4.76;72.59;101266.47;5000239;28;20050;-48
2022/03/07 09:39:10;;;;;;;8.90;3.30;;;;;;;4.85;71.65;101260.84;4998573;28;20058;-46
2022/03/07 09:41:37;;;;;;;6.90;2.47;;;;;;;4.87;70.66;101266.91;4997214;28;20052;-45
2022/03/07 09:44:04;;;;;;;7.78;1.83;;;;;;;4.82;69.36;101259.84;4993810;28;20049;-46
2022/03/07 09:46:30;;;;;;;3.42;1.85;;;;;;;4.86;70.73;101257.47;5005312;28;20054;-48
2022/03/07 09:48:57;;;;;;;5.70;2.13;;;;;;;4.97;70.44;101252.75;5000396;28;20489;-48
2022/03/07 09:51:25;;;;;;;3.95;0.73;;;;;;;5.05;70.44;101262.44;4996156;28;20645;-44
2022/03/07 09:53:51;;;;;;;3.60;1.98;;;;;;;5.16;69.71;101257.75;4995870;28;20078;-49
2022/03/07 09:56:18;;;;;;;5.90;2.35;;;;;;;5.28;69.69;101261.66;4998135;28;20046;-49
2022/03/07 09:58:45;;;;;;;6.18;2.22;;;;;;;5.27;68.96;101254.75;4994620;28;20053;-45
2022/03/07 10:01:16;;;;;;;4.65;2.15;;;;;;;5.29;67.62;101257.41;4997346;28;20092;-51
2022/03/07 10:03:48;;;;;;;5.40;3.60;;;;;;;5.24;66.82;101253.78;4990945;28;20037;-49
2022/03/07 10:06:19;;;;;;;4.63;2.03;;;;;;;5.19;65.82;101245.00;4989769;28;20054;-51
2022/03/07 10:08:56;;;;;;;4.07;1.75;;;;;;;5.16;65.99;101244.91;5010845;28;20061;-49
2022/03/07 10:11:23;;;;;;;6.72;2.00;;;;;;;5.16;66.17;101256.03;4997018;28;20136;-49
2022/03/07 10:13:55;;;;;;;4.45;2.10;;;;;;;5.09;64.94;101247.22;4991443;28;20092;-49
2022/03/07 10:16:43;;;;;;;7.30;2.33;;;;;;;5.07;63.53;101253.97;4996397;28;20051;-47
2022/03/07 10:19:14;;;;;;;3.90;2.17;;;;;;;5.04;63.68;101253.00;4986412;28;20051;-45
2022/03/07 10:21:50;;;;;;;2.38;1.92;;;;;;;5.04;63.80;101242.72;4969483;28;20046;-49
2022/03/07 10:24:18;;;;;;;5.00;2.50;;;;;;;5.12;63.06;101244.78;4976853;28;20490;-45
2022/03/07 10:26:44;;;;;;;1.85;1.70;;;;;;;5.12;63.13;101244.78;4972154;28;20058;-49
2022/03/07 10:29:11;;;;;;;1.80;1.70;;;;;;;5.17;63.99;101231.25;4991917;28;20050;-47
2022/03/07 10:31:59;;;;;;;2.83;1.55;;;;;;;5.17;64.56;101226.09;4971291;28;20081;-47
2022/03/07 10:34:26;;;;;;;3.63;1.98;;;;;;;5.23;64.61;101227.22;4990819;28;20134;-49
2022/03/07 10:36:53;;;;;;;1.77;1.58;;;;;;;5.26;63.29;101221.31;4971692;28;20051;-46
2022/03/07 10:39:25;;;;;;;4.30;1.48;;;;;;;5.34;63.75;101222.47;4976133;28;20934;-46
2022/03/07 10:41:51;;;;;;;5.15;1.70;;;;;;;5.37;62.85;101209.75;4976055;28;20065;-46
2022/03/07 10:44:35;;;;;;;5.95;2.28;;;;;;;5.36;63.77;101213.13;4967383;28;20087;-47
2022/03/07 10:47:19;;;;;;;1.30;1.25;;;;;;;5.32;62.74;101208.72;4975692;28;20054;-46
2022/03/07 10:49:49;;;;;;;6.38;1.77;;;;;;;5.34;62.84;101208.78;4972171;28;20114;-46
2022/03/07 10:52:15;;;;;;;3.42;0.77;;;;;;;5.24;63.11;101213.53;4966654;28;20447;-47
2022/03/07 10:54:43;;;;;;;3.33;0.88;;;;;;;5.16;63.33;101222.66;4978334;28;20503;-50
2022/03/07 10:57:09;;;;;;;3.05;1.60;;;;;;;5.19;63.87;101202.22;4982464;28;20101;-49
2022/03/07 10:59:38;;;;;;;3.45;2.13;;;;;;;5.19;63.26;101193.63;4976026;28;20042;-48
2022/03/07 11:04:42;;;;;;;5.10;0.90;;;;;;;5.35;64.07;101190.84;5013483;28;20806;-45
2022/03/07 11:07:09;;;;;;;3.22;1.15;;;;;;;5.34;63.68;101185.66;4999554;28;20050;-45
2022/03/07 11:09:36;;;;;;;1.45;0.60;;;;;;;5.38;63.95;101193.50;5001207;28;20050;-48
2022/03/07 11:12:05;;;;;;;2.55;0.90;;;;;;;5.42;63.39;101178.22;4997615;28;20053;-45
2022/03/07 11:14:32;;;;;;;2.10;1.00;;;;;;;5.39;62.56;101178.97;4998138;28;20665;-47
2022/03/07 11:16:59;;;;;;;0.80;0.60;;;;;;;5.46;64.47;101182.63;4991680;28;20112;-51
2022/03/07 11:19:28;;;;;;;1.92;0.52;;;;;;;5.45;63.84;101170.63;4995078;28;20064;-45
2022/03/07 11:21:56;;;;;;;8.30;2.15;;;;;;;5.46;64.55;101172.34;4993872;28;20050;-52
2022/03/07 11:24:24;;;;;;;2.65;0.93;;;;;;;5.55;63.71;101172.72;4999759;28;20046;-43
2022/03/07 11:26:54;;;;;;;2.00;0.40;;;;;;;5.51;61.72;101166.56;4993729;28;20069;-45
2022/03/07 11:29:33;;;;;;;3.17;0.40;;;;;;;5.37;62.19;101163.50;4991637;28;20050;-47
2022/03/07 11:32:03;;;;;;;1.83;1.17;;;;;;;5.40;63.65;101158.47;4991498;28;20050;-47
2022/03/07 11:34:30;;;;;;;5.80;0.68;;;;;;;5.40;63.77;101150.78;4999896;28;20073;-48
2022/03/07 11:36:57;;;;;;;3.22;0.57;;;;;;;5.48;64.18;101165.59;4998238;28;20076;-47
2022/03/07 11:39:32;;;;;;;4.85;0.77;;;;;;;5.42;64.83;101149.94;4993539;28;20042;-48